createdAt,value
2017-01-18T00:00:55.376Z,26.5
2017-01-18T00:01:55.438Z,26.51
2017-01-18T00:02:55.847Z,26.5
2017-01-18T00:03:55.802Z,26.52
2017-01-18T00:04:55.761Z,26.48
2017-01-18T00:05:55.375Z,26.51
2017-01-18T00:06:55.375Z,26.4
2017-01-18T00:07:56.086Z,26.5
2017-01-18T00:08:55.402Z,26.52
2017-01-18T00:09:55.849Z,26.4
2017-01-18T00:10:55.512Z,26.55
2017-01-18T00:11:55.865Z,26.5
2017-01-18T00:12:55.509Z,26.52
2017-01-18T00:13:55.487Z,26.51
2017-01-18T00:14:55.044Z,26.45
2017-01-18T00:15:55.500Z,26.5
2017-01-18T00:16:55.060Z,26.47
2017-01-18T00:17:55.463Z,26.39
2017-01-18T00:18:56.368Z,26.43
2017-01-18T00:19:55.479Z,26.36
2017-01-18T00:20:55.539Z,26.43
2017-01-18T00:21:55.500Z,26.48
2017-01-18T00:22:55.503Z,26.44
2017-01-18T00:23:55.567Z,26.44
2017-01-18T00:24:55.522Z,26.4
2017-01-18T00:25:55.580Z,26.37
2017-01-18T00:26:55.145Z,26.37
2017-01-18T00:27:56.182Z,26.33
2017-01-18T00:28:55.998Z,26.4
2017-01-18T00:29:56.364Z,26.45
2017-01-18T00:30:55.571Z,26.5
2017-01-18T00:31:55.631Z,26.5
2017-01-18T00:32:55.632Z,26.45
2017-01-18T00:33:55.893Z,26.5
2017-01-18T00:34:55.357Z,26.51
2017-01-18T00:35:55.661Z,26.5
2017-01-18T00:36:56.016Z,26.45
2017-01-18T00:37:55.276Z,26.57
2017-01-18T00:38:57.182Z,26.48
2017-01-18T00:39:55.242Z,26.4
2017-01-18T00:40:55.900Z,26.4
2017-01-18T00:41:55.258Z,26.4
2017-01-18T00:42:55.662Z,26.43
2017-01-18T00:43:55.671Z,26.4
2017-01-18T00:44:55.683Z,26.4
2017-01-18T00:45:56.086Z,26.43
2017-01-18T00:46:55.696Z,26.4
2017-01-18T00:47:55.709Z,26.44
2017-01-18T00:48:55.708Z,26.5
2017-01-18T00:49:56.422Z,26.4
2017-01-18T00:50:56.176Z,26.36
2017-01-18T00:51:56.033Z,26.39
2017-01-18T00:52:55.844Z,26.4
2017-01-18T00:53:56.147Z,26.48
2017-01-18T00:54:56.158Z,26.4
2017-01-18T00:55:55.814Z,26.39
2017-01-18T00:56:55.427Z,26.47
2017-01-18T00:57:55.830Z,26.4
2017-01-18T00:58:55.789Z,26.51
2017-01-18T00:59:56.192Z,26.51
2017-01-18T01:00:57.051Z,26.52
2017-01-18T01:01:55.862Z,26.52
2017-01-18T01:02:55.919Z,26.45
2017-01-18T01:03:55.830Z,26.39
2017-01-18T01:04:55.885Z,26.44
2017-01-18T01:05:56.240Z,26.43
2017-01-18T01:06:56.298Z,26.45
2017-01-18T01:07:56.304Z,26.45
2017-01-18T01:08:55.968Z,26.43
2017-01-18T01:09:55.494Z,26.45
2017-01-18T01:10:56.326Z,26.5
2017-01-18T01:11:56.199Z,26.47
2017-01-18T01:12:55.501Z,26.44
2017-01-18T01:13:56.351Z,26.4
2017-01-18T01:14:55.913Z,26.47
2017-01-18T01:15:56.367Z,26.44
2017-01-18T01:16:56.329Z,26.43
2017-01-18T01:17:56.040Z,26.33
2017-01-18T01:18:55.946Z,26.37
2017-01-18T01:19:56.000Z,26.44
2017-01-18T01:20:56.010Z,26.5
2017-01-18T01:21:56.016Z,26.51
2017-01-18T01:22:56.687Z,26.52
2017-01-18T01:23:55.585Z,26.5
2017-01-18T01:24:56.838Z,26.45
2017-01-18T01:25:56.047Z,26.45
2017-01-18T01:26:56.057Z,26.37
2017-01-18T01:27:56.060Z,26.44
2017-01-18T01:28:56.467Z,26.47
2017-01-18T01:29:56.476Z,26.43
2017-01-18T01:30:55.689Z,26.45
2017-01-18T01:31:56.443Z,26.35
2017-01-18T01:32:56.446Z,26.37
2017-01-18T01:33:56.712Z,26.33
2017-01-18T01:34:56.460Z,26.3
2017-01-18T01:35:56.677Z,26.32
2017-01-18T01:36:55.735Z,26.3
2017-01-18T01:37:55.845Z,26.4
2017-01-18T01:38:55.752Z,26.48
2017-01-18T01:39:56.104Z,26.45
2017-01-18T01:40:56.558Z,26.44
2017-01-18T01:41:56.518Z,26.35
2017-01-18T01:42:56.127Z,26.33
2017-01-18T01:43:56.133Z,26.33
2017-01-18T01:44:56.850Z,26.43
2017-01-18T01:45:56.152Z,26.36
2017-01-18T01:46:56.457Z,26.35
2017-01-18T01:47:56.217Z,26.35
2017-01-18T01:48:56.126Z,26.36
2017-01-18T01:49:56.087Z,26.4
2017-01-18T01:50:56.206Z,26.4
2017-01-18T01:51:56.205Z,26.37
2017-01-18T01:52:55.808Z,26.43
2017-01-18T01:53:56.660Z,26.4
2017-01-18T01:54:56.321Z,26.51
2017-01-18T01:55:57.230Z,26.44
2017-01-18T01:56:56.292Z,26.48
2017-01-18T01:57:56.477Z,26.4
2017-01-18T01:58:56.647Z,26.44
2017-01-18T01:59:56.314Z,26.43
2017-01-18T02:00:56.793Z,26.37
2017-01-18T02:01:56.674Z,26.45
2017-01-18T02:02:56.282Z,26.45
2017-01-18T02:03:55.944Z,26.4
2017-01-18T02:04:56.744Z,26.47
2017-01-18T02:05:56.309Z,26.37
2017-01-18T02:06:57.874Z,26.39
2017-01-18T02:07:56.872Z,26.43
2017-01-18T02:08:56.833Z,26.44
2017-01-18T02:09:56.337Z,26.52
2017-01-18T02:10:56.789Z,26.54
2017-01-18T02:11:56.406Z,26.6
2017-01-18T02:12:56.464Z,26.44
2017-01-18T02:13:56.814Z,26.45
2017-01-18T02:14:56.821Z,26.33
2017-01-18T02:15:55.984Z,26.37
2017-01-18T02:16:56.394Z,26.36
2017-01-18T02:17:57.173Z,26.36
2017-01-18T02:18:56.456Z,26.36
2017-01-18T02:19:57.165Z,26.44
2017-01-18T02:20:56.423Z,26.43
2017-01-18T02:21:56.830Z,26.33
2017-01-18T02:22:56.489Z,26.35
2017-01-18T02:23:56.497Z,26.37
2017-01-18T02:24:56.506Z,26.32
2017-01-18T02:25:56.466Z,26.36
2017-01-18T02:26:56.914Z,26.35
2017-01-18T02:27:56.477Z,26.33
2017-01-18T02:28:57.484Z,26.43
2017-01-18T02:29:56.938Z,26.32
2017-01-18T02:30:57.101Z,26.33
2017-01-18T02:31:56.113Z,26.35
2017-01-18T02:32:56.615Z,26.3
2017-01-18T02:33:56.969Z,26.36
2017-01-18T02:34:56.635Z,26.29
2017-01-18T02:35:56.542Z,26.36
2017-01-18T02:36:57.042Z,26.33
2017-01-18T02:37:56.952Z,26.36
2017-01-18T02:38:56.958Z,26.47
2017-01-18T02:39:57.370Z,26.44
2017-01-18T02:40:57.075Z,26.39
2017-01-18T02:41:56.587Z,26.44
2017-01-18T02:42:56.641Z,26.55
2017-01-18T02:43:56.601Z,26.65
2017-01-18T02:44:56.214Z,26.48
2017-01-18T02:45:56.618Z,26.37
2017-01-18T02:46:56.680Z,26.35
2017-01-18T02:47:57.027Z,26.37
2017-01-18T02:48:56.642Z,26.32
2017-01-18T02:49:56.644Z,26.25
2017-01-18T02:50:57.405Z,26.29
2017-01-18T02:51:56.714Z,26.23
2017-01-18T02:52:57.066Z,26.32
2017-01-18T02:53:57.126Z,26.32
2017-01-18T02:54:56.291Z,26.43
2017-01-18T02:55:57.145Z,26.28
2017-01-18T02:56:56.699Z,26.39
2017-01-18T02:57:56.713Z,26.28
2017-01-18T02:58:56.324Z,26.32
2017-01-18T02:59:56.381Z,26.36
2017-01-18T03:00:56.391Z,26.4
2017-01-18T03:01:57.637Z,26.35
2017-01-18T03:02:56.799Z,26.33
2017-01-18T03:03:56.462Z,26.4
2017-01-18T03:04:57.161Z,26.36
2017-01-18T03:05:58.171Z,26.4
2017-01-18T03:06:56.830Z,26.37
2017-01-18T03:07:56.839Z,26.37
2017-01-18T03:08:57.194Z,26.4
2017-01-18T03:09:57.198Z,26.43
2017-01-18T03:10:56.809Z,26.37
2017-01-18T03:11:57.317Z,26.47
2017-01-18T03:12:57.923Z,26.47
2017-01-18T03:13:56.887Z,26.43
2017-01-18T03:14:56.745Z,26.47
2017-01-18T03:15:57.257Z,26.45
2017-01-18T03:16:56.855Z,26.51
2017-01-18T03:17:56.468Z,26.47
2017-01-18T03:18:56.926Z,26.45
2017-01-18T03:19:56.883Z,26.4
2017-01-18T03:20:57.288Z,26.43
2017-01-18T03:21:56.897Z,26.4
2017-01-18T03:22:56.954Z,26.44
2017-01-18T03:23:57.808Z,26.43
2017-01-18T03:24:56.968Z,26.35
2017-01-18T03:25:57.083Z,26.37
2017-01-18T03:26:56.986Z,26.44
2017-01-18T03:27:58.349Z,26.43
2017-01-18T03:28:57.343Z,26.39
2017-01-18T03:29:56.961Z,26.37
2017-01-18T03:30:57.411Z,26.4
2017-01-18T03:31:57.368Z,26.43
2017-01-18T03:32:57.378Z,26.45
2017-01-18T03:33:57.040Z,26.4
2017-01-18T03:34:57.848Z,26.37
2017-01-18T03:35:57.004Z,26.45
2017-01-18T03:36:57.012Z,26.32
2017-01-18T03:37:57.416Z,26.44
2017-01-18T03:38:57.076Z,26.37
2017-01-18T03:39:57.083Z,26.43
2017-01-18T03:40:57.046Z,26.45
2017-01-18T03:41:57.445Z,26.39
2017-01-18T03:42:56.761Z,26.45
2017-01-18T03:43:57.170Z,26.4
2017-01-18T03:44:57.076Z,26.45
2017-01-18T03:45:57.531Z,26.51
2017-01-18T03:46:57.589Z,26.52
2017-01-18T03:47:57.146Z,26.54
2017-01-18T03:48:56.713Z,26.48
2017-01-18T03:49:56.815Z,26.51
2017-01-18T03:50:57.120Z,26.5
2017-01-18T03:51:57.126Z,26.52
2017-01-18T03:52:57.534Z,26.48
2017-01-18T03:53:57.197Z,26.44
2017-01-18T03:54:57.159Z,26.55
2017-01-18T03:55:57.554Z,26.37
2017-01-18T03:56:57.139Z,26.44
2017-01-18T03:57:57.179Z,26.45
2017-01-18T03:58:57.184Z,26.37
2017-01-18T03:59:57.940Z,26.39
2017-01-18T04:00:57.252Z,26.43
2017-01-18T04:01:57.209Z,26.37
2017-01-18T04:02:57.717Z,26.32
2017-01-18T04:03:56.881Z,26.39
2017-01-18T04:04:57.232Z,26.37
2017-01-18T04:05:56.896Z,26.44
2017-01-18T04:06:57.246Z,26.45
2017-01-18T04:07:57.653Z,26.44
2017-01-18T04:08:56.865Z,26.39
2017-01-18T04:09:57.715Z,26.44
2017-01-18T04:10:57.674Z,26.47
2017-01-18T04:11:56.889Z,26.47
2017-01-18T04:12:56.897Z,26.55
2017-01-18T04:13:57.008Z,26.52
2017-01-18T04:14:57.359Z,26.51
2017-01-18T04:15:57.712Z,26.62
2017-01-18T04:16:57.822Z,26.51
2017-01-18T04:17:57.333Z,26.57
2017-01-18T04:18:57.600Z,26.65
2017-01-18T04:19:56.954Z,26.57
2017-01-18T04:20:57.259Z,26.65
2017-01-18T04:21:57.862Z,26.52
2017-01-18T04:22:57.369Z,26.47
2017-01-18T04:23:57.775Z,26.37
2017-01-18T04:24:57.484Z,26.45
2017-01-18T04:25:57.838Z,26.37
2017-01-18T04:26:57.452Z,26.36
2017-01-18T04:27:57.807Z,26.36
2017-01-18T04:28:57.865Z,26.35
2017-01-18T04:29:57.970Z,26.43
2017-01-18T04:30:57.433Z,26.4
2017-01-18T04:31:57.490Z,26.35
2017-01-18T04:32:57.548Z,26.43
2017-01-18T04:33:57.456Z,26.44
2017-01-18T04:34:57.152Z,26.43
2017-01-18T04:35:57.472Z,26.45
2017-01-18T04:36:57.919Z,26.37
2017-01-18T04:37:57.190Z,26.39
2017-01-18T04:38:57.544Z,26.35
2017-01-18T04:39:57.605Z,26.28
2017-01-18T04:40:57.507Z,26.36
2017-01-18T04:41:57.565Z,26.39
2017-01-18T04:42:57.527Z,26.37
2017-01-18T04:43:57.584Z,26.37
2017-01-18T04:44:57.537Z,26.4
2017-01-18T04:45:58.042Z,26.44
2017-01-18T04:46:57.603Z,26.39
2017-01-18T04:47:57.567Z,26.45
2017-01-18T04:48:57.619Z,26.47
2017-01-18T04:49:57.283Z,26.5
2017-01-18T04:50:58.016Z,26.54
2017-01-18T04:51:57.898Z,26.51
2017-01-18T04:52:57.308Z,26.48
2017-01-18T04:53:57.611Z,26.45
2017-01-18T04:54:57.671Z,26.39
2017-01-18T04:55:59.183Z,26.44
2017-01-18T04:56:58.079Z,26.3
2017-01-18T04:57:57.693Z,26.3
2017-01-18T04:58:57.701Z,26.44
2017-01-18T04:59:57.662Z,26.36
2017-01-18T05:00:57.671Z,26.35
2017-01-18T05:01:58.069Z,26.36
2017-01-18T05:02:58.036Z,26.25
2017-01-18T05:03:58.185Z,26.23
2017-01-18T05:04:58.092Z,26.29
2017-01-18T05:05:57.755Z,26.33
2017-01-18T05:06:57.711Z,26.25
2017-01-18T05:07:58.115Z,26.32
2017-01-18T05:08:58.125Z,26.28
2017-01-18T05:09:57.736Z,26.35
2017-01-18T05:10:57.445Z,26.33
2017-01-18T05:11:57.403Z,26.28
2017-01-18T05:12:57.756Z,26.35
2017-01-18T05:13:58.413Z,26.33
2017-01-18T05:14:57.778Z,26.39
2017-01-18T05:15:58.208Z,26.32
2017-01-18T05:16:58.239Z,26.3
2017-01-18T05:17:57.899Z,26.32
2017-01-18T05:18:58.249Z,26.28
2017-01-18T05:19:57.865Z,26.29
2017-01-18T05:20:58.218Z,26.32
2017-01-18T05:21:57.432Z,26.44
2017-01-18T05:22:58.334Z,26.51
2017-01-18T05:23:58.287Z,26.45
2017-01-18T05:24:58.596Z,26.4
2017-01-18T05:25:58.305Z,26.33
2017-01-18T05:26:57.866Z,26.33
2017-01-18T05:27:58.327Z,26.32
2017-01-18T05:28:59.478Z,26.28
2017-01-18T05:29:57.994Z,26.26
2017-01-18T05:30:58.295Z,26.3
2017-01-18T05:31:57.954Z,26.3
2017-01-18T05:32:57.914Z,26.26
2017-01-18T05:33:57.922Z,26.18
2017-01-18T05:34:57.983Z,26.25
2017-01-18T05:35:58.682Z,26.18
2017-01-18T05:36:57.993Z,26.32
2017-01-18T05:37:58.106Z,26.32
2017-01-18T05:38:57.563Z,26.33
2017-01-18T05:39:58.016Z,26.36
2017-01-18T05:40:57.976Z,26.26
2017-01-18T05:41:58.033Z,26.15
2017-01-18T05:42:58.141Z,26.15
2017-01-18T05:43:57.998Z,26.13
2017-01-18T05:44:58.059Z,26.17
2017-01-18T05:45:58.408Z,26.2
2017-01-18T05:46:58.674Z,26.23
2017-01-18T05:47:57.632Z,26.32
2017-01-18T05:48:58.465Z,26.26
2017-01-18T05:49:58.540Z,26.3
2017-01-18T05:50:58.497Z,26.23
2017-01-18T05:51:58.505Z,26.26
2017-01-18T05:52:58.068Z,26.25
2017-01-18T05:53:58.123Z,26.33
2017-01-18T05:54:58.083Z,26.48
2017-01-18T05:55:58.522Z,26.48
2017-01-18T05:56:58.544Z,26.3
2017-01-18T05:57:59.350Z,26.37
2017-01-18T05:58:58.163Z,26.43
2017-01-18T05:59:58.618Z,26.33
2017-01-18T06:00:58.575Z,26.39
2017-01-18T06:01:58.161Z,26.33
2017-01-18T06:02:58.245Z,26.28
2017-01-18T06:03:58.204Z,26.26
2017-01-18T06:04:58.163Z,26.25
2017-01-18T06:05:58.217Z,26.26
2017-01-18T06:06:58.626Z,26.28
2017-01-18T06:07:58.234Z,26.21
2017-01-18T06:08:57.795Z,26.3
2017-01-18T06:09:58.250Z,26.33
2017-01-18T06:10:58.856Z,26.48
2017-01-18T06:11:57.869Z,26.37
2017-01-18T06:12:58.624Z,26.25
2017-01-18T06:13:57.835Z,26.2
2017-01-18T06:14:58.690Z,26.28
2017-01-18T06:15:58.643Z,26.13
2017-01-18T06:16:58.252Z,26.12
2017-01-18T06:17:57.865Z,26.1
2017-01-18T06:18:58.725Z,26.26
2017-01-18T06:19:59.307Z,26.25
2017-01-18T06:20:58.436Z,26.3
2017-01-18T06:21:58.893Z,26.26
2017-01-18T06:22:58.748Z,26.3
2017-01-18T06:23:57.963Z,26.37
2017-01-18T06:24:58.364Z,26.35
2017-01-18T06:25:58.422Z,26.39
2017-01-18T06:26:58.727Z,26.48
2017-01-18T06:27:57.944Z,26.48
2017-01-18T06:28:57.951Z,26.45
2017-01-18T06:29:58.751Z,26.52
2017-01-18T06:30:59.415Z,26.36
2017-01-18T06:31:58.818Z,26.35
2017-01-18T06:32:58.979Z,26.32
2017-01-18T06:33:58.390Z,26.18
2017-01-18T06:34:58.001Z,26.28
2017-01-18T06:35:58.851Z,26.25
2017-01-18T06:36:58.458Z,26.28
2017-01-18T06:37:58.867Z,26.25
2017-01-18T06:38:58.871Z,26.25
2017-01-18T06:39:58.138Z,26.21
2017-01-18T06:40:58.097Z,26.15
2017-01-18T06:41:59.629Z,26.29
2017-01-18T06:42:58.458Z,26.3
2017-01-18T06:43:58.963Z,26.25
2017-01-18T06:44:58.474Z,26.29
2017-01-18T06:45:59.027Z,26.23
2017-01-18T06:46:58.888Z,26.29
2017-01-18T06:47:58.546Z,26.4
2017-01-18T06:48:58.516Z,26.4
2017-01-18T06:49:58.566Z,26.47
2017-01-18T06:50:58.917Z,26.43
2017-01-18T06:51:58.530Z,26.37
2017-01-18T06:52:59.980Z,26.26
2017-01-18T06:53:58.198Z,26.43
2017-01-18T06:54:59.199Z,26.39
2017-01-18T06:55:58.961Z,26.35
2017-01-18T06:56:58.968Z,26.51
2017-01-18T06:57:58.578Z,26.47
2017-01-18T06:58:58.694Z,26.5
2017-01-18T06:59:58.640Z,26.48
2017-01-18T07:00:58.599Z,26.55
2017-01-18T07:01:58.605Z,26.37
2017-01-18T07:02:58.612Z,26.44
2017-01-18T07:03:59.823Z,26.37
2017-01-18T07:04:59.077Z,26.4
2017-01-18T07:05:58.938Z,26.39
2017-01-18T07:06:59.142Z,26.4
2017-01-18T07:07:58.660Z,26.45
2017-01-18T07:08:59.015Z,26.48
2017-01-18T07:09:58.772Z,26.45
2017-01-18T07:10:58.677Z,26.55
2017-01-18T07:11:58.288Z,26.47
2017-01-18T07:12:58.693Z,26.54
2017-01-18T07:13:58.705Z,26.52
2017-01-18T07:14:59.656Z,26.45
2017-01-18T07:15:58.718Z,26.47
2017-01-18T07:16:59.124Z,26.48
2017-01-18T07:17:58.782Z,26.51
2017-01-18T07:18:59.139Z,26.45
2017-01-18T07:19:58.801Z,26.47
2017-01-18T07:20:58.418Z,26.51
2017-01-18T07:21:59.207Z,26.6
2017-01-18T07:22:58.377Z,26.55
2017-01-18T07:23:58.379Z,26.51
2017-01-18T07:24:58.788Z,26.51
2017-01-18T07:25:59.501Z,26.57
2017-01-18T07:26:58.853Z,26.67
2017-01-18T07:27:58.969Z,26.77
2017-01-18T07:28:58.471Z,26.91
2017-01-18T07:29:59.227Z,27.02
2017-01-18T07:30:59.279Z,27.1
2017-01-18T07:31:59.238Z,27.31
2017-01-18T07:32:58.502Z,27.39
2017-01-18T07:33:58.907Z,27.49
2017-01-18T07:34:59.313Z,27.66
2017-01-18T07:35:59.321Z,27.51
2017-01-18T07:36:59.230Z,27.59
2017-01-18T07:37:59.333Z,27.78
2017-01-18T07:38:59.294Z,27.79
2017-01-18T07:39:59.360Z,27.94
2017-01-18T07:40:59.015Z,28.02
2017-01-18T07:41:58.576Z,28.21
2017-01-18T07:42:58.931Z,28.11
2017-01-18T07:43:58.590Z,28.11
2017-01-18T07:44:58.997Z,28.18
2017-01-18T07:45:58.607Z,28.39
2017-01-18T07:46:59.408Z,28.48
2017-01-18T07:47:59.420Z,28.56
2017-01-18T07:48:59.374Z,28.56
2017-01-18T07:49:59.086Z,28.55
2017-01-18T07:50:59.489Z,28.52
2017-01-18T07:51:59.030Z,28.41
2017-01-18T07:52:58.661Z,28.49
2017-01-18T07:53:59.468Z,28.56
2017-01-18T07:54:59.425Z,28.56
2017-01-18T07:55:59.036Z,28.55
2017-01-18T07:56:59.093Z,28.64
2017-01-18T07:57:59.152Z,28.56
2017-01-18T07:58:59.856Z,28.56
2017-01-18T07:59:59.217Z,28.61
2017-01-18T08:00:59.480Z,28.54
2017-01-18T08:01:59.136Z,28.66
2017-01-18T08:02:59.143Z,28.86
2017-01-18T08:03:58.729Z,28.89
2017-01-18T08:04:59.506Z,28.74
2017-01-18T08:05:59.170Z,28.62
2017-01-18T08:06:59.133Z,28.73
2017-01-18T08:07:58.750Z,28.71
2017-01-18T08:08:59.146Z,28.8
2017-01-18T08:10:00.549Z,28.81
2017-01-18T08:10:58.765Z,28.88
2017-01-18T08:11:59.813Z,28.78
2017-01-18T08:12:59.228Z,28.81
2017-01-18T08:13:59.608Z,28.86
2017-01-18T08:14:58.799Z,28.8
2017-01-18T08:15:59.600Z,28.78
2017-01-18T08:16:59.279Z,28.86
2017-01-18T08:17:58.823Z,28.73
2017-01-18T08:18:58.890Z,28.73
2017-01-18T08:19:59.240Z,28.68
2017-01-18T08:21:00.396Z,28.78
2017-01-18T08:21:58.910Z,28.85
2017-01-18T08:23:00.065Z,28.78
2017-01-18T08:23:59.273Z,28.85
2017-01-18T08:24:59.278Z,28.86
2017-01-18T08:25:59.367Z,28.83
2017-01-18T08:26:59.294Z,28.83
2017-01-18T08:27:59.352Z,28.92
2017-01-18T08:28:59.416Z,28.77
2017-01-18T08:29:59.375Z,28.77
2017-01-18T08:30:59.775Z,28.9
2017-01-18T08:32:00.495Z,28.95
2017-01-18T08:32:59.744Z,28.95
2017-01-18T08:34:00.205Z,28.92
2017-01-18T08:34:59.364Z,28.96
2017-01-18T08:35:59.768Z,28.92
2017-01-18T08:36:59.783Z,29.04
2017-01-18T08:37:59.391Z,28.95
2017-01-18T08:38:59.446Z,28.89
2017-01-18T08:39:59.404Z,28.83
2017-01-18T08:40:59.074Z,28.83
2017-01-18T08:41:59.423Z,28.85
2017-01-18T08:43:00.662Z,28.92
2017-01-18T08:43:59.493Z,28.98
2017-01-18T08:45:00.446Z,29.02
2017-01-18T08:45:59.065Z,28.96
2017-01-18T08:46:59.570Z,29.02
2017-01-18T08:47:59.139Z,29.02
2017-01-18T08:48:59.089Z,29.12
2017-01-18T08:49:59.494Z,29.18
2017-01-18T08:50:59.507Z,29.24
2017-01-18T08:51:59.118Z,29.08
2017-01-18T08:52:59.570Z,29.18
2017-01-18T08:54:01.092Z,29.19
2017-01-18T08:54:59.593Z,29.24
2017-01-18T08:56:00.495Z,29.23
2017-01-18T08:56:59.163Z,29.24
2017-01-18T08:57:59.569Z,29.12
2017-01-18T08:58:59.633Z,29.19
2017-01-18T08:59:59.665Z,29.26
2017-01-18T09:00:59.601Z,29.24
2017-01-18T09:01:59.655Z,29.37
2017-01-18T09:02:59.221Z,29.3
2017-01-18T09:03:59.277Z,29.36
2017-01-18T09:05:01.002Z,29.3
2017-01-18T09:05:59.249Z,29.37
2017-01-18T09:07:00.906Z,29.6
2017-01-18T09:07:59.715Z,29.45
2017-01-18T09:08:59.322Z,29.36
2017-01-18T09:10:00.079Z,29.42
2017-01-18T09:10:59.691Z,29.45
2017-01-18T09:12:00.098Z,29.52
2017-01-18T09:12:59.813Z,29.53
2017-01-18T09:14:00.118Z,29.51
2017-01-18T09:15:00.180Z,29.48
2017-01-18T09:15:59.393Z,29.55
2017-01-18T09:16:59.852Z,29.52
2017-01-18T09:18:01.020Z,29.51
2017-01-18T09:18:59.778Z,29.6
2017-01-18T09:20:00.229Z,29.42
2017-01-18T09:20:59.854Z,29.34
2017-01-18T09:22:00.207Z,29.43
2017-01-18T09:22:59.865Z,29.31
2017-01-18T09:23:59.481Z,29.26
2017-01-18T09:24:59.895Z,29.33
2017-01-18T09:26:00.250Z,29.26
2017-01-18T09:27:00.256Z,29.27
2017-01-18T09:27:59.474Z,29.28
2017-01-18T09:29:01.524Z,29.14
2017-01-18T09:30:00.291Z,29.16
2017-01-18T09:30:59.503Z,29.09
2017-01-18T09:32:00.361Z,29.11
2017-01-18T09:32:59.598Z,29.08
2017-01-18T09:33:59.924Z,29.05
2017-01-18T09:34:59.938Z,29.08
2017-01-18T09:36:00.350Z,29.06
2017-01-18T09:36:59.587Z,29.12
2017-01-18T09:37:59.966Z,28.95
2017-01-18T09:38:59.983Z,29.09
2017-01-18T09:40:01.488Z,29.14
2017-01-18T09:41:00.438Z,28.96
2017-01-18T09:42:00.105Z,28.89
2017-01-18T09:43:00.018Z,28.81
2017-01-18T09:44:00.466Z,28.89
2017-01-18T09:44:59.684Z,28.81
2017-01-18T09:45:59.696Z,28.93
2017-01-18T09:47:00.054Z,28.86
2017-01-18T09:48:00.056Z,28.92
2017-01-18T09:48:59.819Z,28.88
2017-01-18T09:50:00.138Z,28.85
2017-01-18T09:51:01.683Z,28.83
2017-01-18T09:52:00.443Z,28.8
2017-01-18T09:53:00.102Z,28.83
2017-01-18T09:54:00.160Z,28.83
2017-01-18T09:55:00.542Z,28.86
2017-01-18T09:55:59.731Z,28.9
2017-01-18T09:56:59.739Z,28.76
2017-01-18T09:58:00.148Z,28.83
2017-01-18T09:58:59.860Z,28.88
2017-01-18T10:00:00.264Z,28.86
2017-01-18T10:01:00.173Z,28.88
2017-01-18T10:02:00.237Z,28.83
2017-01-18T10:03:00.192Z,28.88
2017-01-18T10:04:00.252Z,28.83
2017-01-18T10:05:00.255Z,28.93
2017-01-18T10:06:00.217Z,28.86
2017-01-18T10:07:00.672Z,29.04
2017-01-18T10:08:00.288Z,29.08
2017-01-18T10:09:00.245Z,29.02
2017-01-18T10:10:00.251Z,29.14
2017-01-18T10:11:00.310Z,29.11
2017-01-18T10:12:00.271Z,29.06
2017-01-18T10:12:59.933Z,29.05
2017-01-18T10:14:00.289Z,29
2017-01-18T10:15:00.293Z,28.89
2017-01-18T10:16:00.751Z,28.88
2017-01-18T10:17:00.021Z,28.95
2017-01-18T10:18:00.876Z,28.86
2017-01-18T10:19:00.331Z,28.95
2017-01-18T10:19:59.952Z,28.9
2017-01-18T10:21:00.400Z,28.93
2017-01-18T10:22:00.756Z,29
2017-01-18T10:23:00.763Z,28.98
2017-01-18T10:24:00.426Z,28.88
2017-01-18T10:24:59.988Z,28.89
2017-01-18T10:26:00.443Z,28.89
2017-01-18T10:27:00.031Z,28.9
2017-01-18T10:28:00.463Z,28.85
2017-01-18T10:29:00.920Z,28.93
2017-01-18T10:30:00.979Z,28.92
2017-01-18T10:31:00.346Z,28.78
2017-01-18T10:32:00.892Z,28.9
2017-01-18T10:33:01.106Z,28.8
2017-01-18T10:34:00.465Z,28.9
2017-01-18T10:35:00.524Z,28.83
2017-01-18T10:36:00.531Z,28.89
2017-01-18T10:37:00.887Z,28.88
2017-01-18T10:38:00.505Z,28.76
2017-01-18T10:39:00.560Z,28.81
2017-01-18T10:40:00.514Z,28.9
2017-01-18T10:41:01.022Z,28.73
2017-01-18T10:42:00.582Z,28.8
2017-01-18T10:43:00.595Z,28.89
2017-01-18T10:44:01.169Z,28.78
2017-01-18T10:45:00.611Z,28.86
2017-01-18T10:46:00.572Z,28.77
2017-01-18T10:47:01.025Z,28.71
2017-01-18T10:48:00.586Z,28.61
2017-01-18T10:49:00.595Z,28.67
2017-01-18T10:50:01.055Z,28.74
2017-01-18T10:51:00.218Z,28.71
2017-01-18T10:52:01.016Z,28.71
2017-01-18T10:53:00.679Z,28.7
2017-01-18T10:54:01.032Z,28.67
2017-01-18T10:55:01.550Z,28.62
2017-01-18T10:56:00.654Z,28.58
2017-01-18T10:57:00.792Z,28.68
2017-01-18T10:58:00.667Z,28.68
2017-01-18T10:59:00.332Z,28.66
2017-01-18T11:00:00.788Z,28.73
2017-01-18T11:01:01.146Z,28.7
2017-01-18T11:02:01.151Z,28.7
2017-01-18T11:03:00.765Z,28.62
2017-01-18T11:04:01.116Z,28.61
2017-01-18T11:05:00.333Z,28.68
2017-01-18T11:06:01.589Z,28.66
2017-01-18T11:07:00.798Z,28.67
2017-01-18T11:08:01.257Z,28.62
2017-01-18T11:09:00.830Z,28.61
2017-01-18T11:10:01.166Z,28.66
2017-01-18T11:11:00.879Z,28.68
2017-01-18T11:12:00.838Z,28.61
2017-01-18T11:13:00.799Z,28.78
2017-01-18T11:14:00.809Z,28.88
2017-01-18T11:15:00.816Z,29
2017-01-18T11:16:00.829Z,29.02
2017-01-18T11:17:02.335Z,28.89
2017-01-18T11:18:00.944Z,28.9
2017-01-18T11:19:02.057Z,28.78
2017-01-18T11:20:00.862Z,28.8
2017-01-18T11:21:01.268Z,28.76
2017-01-18T11:22:00.879Z,28.74
2017-01-18T11:23:00.940Z,28.74
2017-01-18T11:24:01.044Z,28.76
2017-01-18T11:25:00.509Z,28.61
2017-01-18T11:26:00.965Z,28.66
2017-01-18T11:27:01.371Z,28.62
2017-01-18T11:28:00.979Z,28.62
2017-01-18T11:29:00.544Z,28.68
2017-01-18T11:30:00.553Z,28.68
2017-01-18T11:31:00.617Z,28.62
2017-01-18T11:32:01.017Z,28.56
2017-01-18T11:33:00.978Z,28.66
2017-01-18T11:34:00.983Z,28.55
2017-01-18T11:35:00.990Z,28.68
2017-01-18T11:36:00.656Z,28.58
2017-01-18T11:37:01.456Z,28.61
2017-01-18T11:38:01.063Z,28.68
2017-01-18T11:39:01.423Z,28.59
2017-01-18T11:40:01.081Z,28.68
2017-01-18T11:41:01.089Z,28.58
2017-01-18T11:42:01.543Z,28.52
2017-01-18T11:43:00.717Z,28.55
2017-01-18T11:44:01.465Z,28.68
2017-01-18T11:45:01.125Z,28.59
2017-01-18T11:46:01.484Z,28.55
2017-01-18T11:47:00.700Z,28.66
2017-01-18T11:48:01.501Z,28.54
2017-01-18T11:49:00.715Z,28.62
2017-01-18T11:50:01.566Z,28.56
2017-01-18T11:51:01.179Z,28.46
2017-01-18T11:52:01.187Z,28.43
2017-01-18T11:53:01.591Z,28.44
2017-01-18T11:54:01.650Z,28.51
2017-01-18T11:55:01.215Z,28.48
2017-01-18T11:56:01.169Z,28.56
2017-01-18T11:57:01.576Z,28.48
2017-01-18T11:58:01.634Z,28.51
2017-01-18T11:59:00.851Z,28.46
2017-01-18T12:00:01.253Z,28.4
2017-01-18T12:01:01.662Z,28.49
2017-01-18T12:02:01.620Z,28.51
2017-01-18T12:03:01.278Z,28.51
2017-01-18T12:04:01.288Z,28.48
2017-01-18T12:05:01.349Z,28.43
2017-01-18T12:06:01.704Z,28.51
2017-01-18T12:07:00.879Z,28.59
2017-01-18T12:08:00.928Z,28.46
2017-01-18T12:09:01.338Z,28.36
2017-01-18T12:10:01.684Z,28.52
2017-01-18T12:11:01.352Z,28.4
2017-01-18T12:12:01.805Z,28.48
2017-01-18T12:13:01.317Z,28.46
2017-01-18T12:14:02.744Z,28.55
2017-01-18T12:15:01.337Z,28.55
2017-01-18T12:16:01.390Z,28.55
2017-01-18T12:17:01.353Z,28.36
2017-01-18T12:18:01.360Z,28.49
2017-01-18T12:19:01.761Z,28.55
2017-01-18T12:20:01.426Z,28.58
2017-01-18T12:21:01.089Z,28.56
2017-01-18T12:22:01.441Z,28.49
2017-01-18T12:23:01.796Z,28.46
2017-01-18T12:24:01.460Z,28.59
2017-01-18T12:25:01.468Z,28.49
2017-01-18T12:26:01.729Z,28.49
2017-01-18T12:27:01.485Z,28.52
2017-01-18T12:28:01.494Z,28.41
2017-01-18T12:29:01.505Z,28.54
2017-01-18T12:30:01.458Z,28.49
2017-01-18T12:31:01.867Z,28.56
2017-01-18T12:32:01.482Z,28.55
2017-01-18T12:33:01.485Z,28.49
2017-01-18T12:34:01.992Z,28.59
2017-01-18T12:35:01.554Z,28.4
2017-01-18T12:36:01.957Z,28.44
2017-01-18T12:37:01.669Z,28.46
2017-01-18T12:38:01.527Z,28.56
2017-01-18T12:39:01.639Z,28.51
2017-01-18T12:40:01.549Z,28.51
2017-01-18T12:41:01.155Z,28.49
2017-01-18T12:42:01.563Z,28.48
2017-01-18T12:43:02.072Z,28.49
2017-01-18T12:44:01.974Z,28.48
2017-01-18T12:45:02.182Z,28.48
2017-01-18T12:46:01.607Z,28.52
2017-01-18T12:47:01.456Z,28.46
2017-01-18T12:48:01.713Z,28.43
2017-01-18T12:49:01.621Z,28.48
2017-01-18T12:50:01.634Z,28.39
2017-01-18T12:51:01.395Z,28.44
2017-01-18T12:52:01.695Z,28.52
2017-01-18T12:53:01.305Z,28.4
2017-01-18T12:54:02.159Z,28.31
2017-01-18T12:55:01.672Z,28.43
2017-01-18T12:56:02.621Z,28.46
2017-01-18T12:57:01.691Z,28.36